Addison, IL (60101)

5:37 AM CST on January 29, 2015 (GMT -0600)
KC9MDO | Change Station
CLOSE
Current Station
Personal Weather Station
Location: Addison, IL
Elevation: 696 ft
Nearby Weather Stations

Elev 696 ft 41.92 °N, 87.99 °W | Updated 14 minutes ago

Partly Cloudy
Partly Cloudy
30.6 °F
Feels Like 31 °F
N
0.0
Wind Variable Wind from SSE

Today
High -- | Low -- °F
--% Chance of Precip.
Yesterday
High -- | Low -- °F
Precip. -- in
7:07 AM 5:02 PM
Waxing Gibbous, 73% visible
Pressure 29.69 in
Visibility 10.0 miles
Clouds Mostly Cloudy 2900 ft
Overcast 3500 ft
Windchill 31 °F
Dew Point 28 °F
Humidity 88%
Rainfall 0.00 in
Snow Depth Not available.
UV 0 out of 12
Pollen .10 out of 12
Air Quality Not available.
Flu Activity Not available.
SPECI KORD 291131Z 33004KT 10SM BKN029 OVC035 M01/M03 A2969 RMK AO2 T10061028

More Conditions Fewer Conditions

Pressure 29.69 in
Visibility 10.0 miles
Clouds Mostly Cloudy 2900 ft
Overcast 3500 ft
Windchill 31 °F
Dew Point 28 °F
Humidity 88%
Rainfall 0.00 in
Snow Depth Not available.
UV 0 out of 12
Pollen .10 out of 12
Air Quality Not available.
Flu Activity Not available.
SPECI KORD 291131Z 33004KT 10SM BKN029 OVC035 M01/M03 A2969 RMK AO2 T10061028

More Conditions Fewer Conditions

10-Day Weather Forecast

Almanac

Astronomy

Jan. 29, 2015 Rise Set
Actual Time
Civil Twilight
Nautical Twilight
Astronomical Twilight
Moon
Length of Visible Light
Length of Day
Tomorrow will be .
, % of the Moon is Illuminated

Today's Extremes

State Highs State Lows

Community

WunderPhotos

Upload Photos

1,791,407 photos uploaded!

WunderBlogs® & News

Nearby

Air Quality

  Air Quality AQ Index Pollutant
Not available.

Snow Depth

Station Depth Elevation

Earthquake Activity

City Distance Mag. Time & Date
Minimum magnitude displayed is 2.5.

Coastal Water Temperatures

Place Temperature

Nearby Weather Stations